createdAt,value
2019-03-11T00:00:30.558Z,7.90
2019-03-11T00:03:02.454Z,4.40
2019-03-11T00:05:34.111Z,6.00
2019-03-11T00:08:06.182Z,10.93
2019-03-11T00:10:38.441Z,6.00
2019-03-11T00:13:10.033Z,7.60
2019-03-11T00:15:41.754Z,6.90
2019-03-11T00:18:13.373Z,5.80
2019-03-11T00:20:44.999Z,6.03
2019-03-11T00:23:16.812Z,4.57
2019-03-11T00:25:48.434Z,14.90
2019-03-11T00:28:20.694Z,8.03
2019-03-11T00:30:52.246Z,6.20
2019-03-11T00:33:23.878Z,9.37
2019-03-11T00:35:55.458Z,8.10
2019-03-11T00:38:27.184Z,10.43
2019-03-11T00:40:58.820Z,6.60
2019-03-11T00:43:31.122Z,5.77
2019-03-11T00:46:02.675Z,3.40
2019-03-11T00:48:34.373Z,9.10
2019-03-11T00:51:06.046Z,10.50
2019-03-11T00:53:37.624Z,6.17
2019-03-11T00:56:09.239Z,14.30
2019-03-11T00:58:41.540Z,9.77
2019-03-11T01:01:13.178Z,5.63
2019-03-11T01:03:44.840Z,8.83
2019-03-11T01:06:16.896Z,10.70
2019-03-11T01:08:48.942Z,4.50
2019-03-11T01:11:20.537Z,5.07
2019-03-11T01:13:53.412Z,13.62
2019-03-11T01:16:25.053Z,15.03
2019-03-11T01:18:56.672Z,9.60
2019-03-11T01:21:28.343Z,9.37
2019-03-11T01:23:59.980Z,10.70
2019-03-11T01:26:31.576Z,10.07
2019-03-11T01:29:03.844Z,12.10
2019-03-11T01:31:35.433Z,10.37
2019-03-11T01:34:07.050Z,6.70
2019-03-11T01:36:39.107Z,9.73
2019-03-11T01:39:10.782Z,7.43
2019-03-11T01:41:42.537Z,5.13
2019-03-11T01:44:14.921Z,9.70
2019-03-11T01:46:46.549Z,11.10
2019-03-11T01:49:18.214Z,8.63
2019-03-11T01:51:50.041Z,7.90
2019-03-11T01:54:21.686Z,6.77
2019-03-11T01:56:53.968Z,12.10
2019-03-11T01:59:26.274Z,10.27
2019-03-11T02:01:57.927Z,8.43
2019-03-11T02:04:31.025Z,12.07
2019-03-11T02:07:03.018Z,12.20
2019-03-11T02:09:34.658Z,12.10
2019-03-11T02:12:06.333Z,8.50
2019-03-11T02:14:38.535Z,6.93
2019-03-11T02:17:10.134Z,11.90
2019-03-11T02:19:42.794Z,13.23
2019-03-11T02:22:14.919Z,14.80
2019-03-11T02:24:46.520Z,4.00
2019-03-11T02:27:18.165Z,11.30
2019-03-11T02:29:50.033Z,10.15
2019-03-11T02:32:21.993Z,6.03
2019-03-11T02:34:53.594Z,11.20
2019-03-11T02:37:25.228Z,9.13
2019-03-11T02:39:56.812Z,7.47
2019-03-11T02:42:28.470Z,8.58
2019-03-11T02:45:00.400Z,13.58
2019-03-11T02:47:32.257Z,7.50
2019-03-11T02:50:03.922Z,9.20
2019-03-11T02:52:35.709Z,10.87
2019-03-11T02:55:07.539Z,9.13
2019-03-11T02:57:39.246Z,5.17
2019-03-11T03:00:12.671Z,7.87
2019-03-11T03:03:06.274Z,13.57
2019-03-11T03:05:50.282Z,6.83
2019-03-11T03:08:22.251Z,10.47
2019-03-11T03:10:53.986Z,15.03
2019-03-11T03:13:25.713Z,9.00
2019-03-11T03:15:57.537Z,13.60
2019-03-11T03:18:29.417Z,11.07
2019-03-11T03:21:01.083Z,10.72
2019-03-11T03:23:32.719Z,14.77
2019-03-11T03:26:04.321Z,15.63
2019-03-11T03:28:35.959Z,13.77
2019-03-11T03:31:07.597Z,6.87
2019-03-11T03:33:39.459Z,6.28
2019-03-11T03:36:11.170Z,11.67
2019-03-11T03:38:42.885Z,6.60
2019-03-11T03:41:14.518Z,8.40
2019-03-11T03:43:46.115Z,7.53
2019-03-11T03:46:19.456Z,6.87
2019-03-11T03:48:51.282Z,6.53
2019-03-11T03:51:23.419Z,11.40
2019-03-11T03:53:55.049Z,8.70
2019-03-11T03:56:26.821Z,7.03
2019-03-11T03:58:58.431Z,8.33
2019-03-11T04:01:30.018Z,15.33
2019-03-11T04:04:02.387Z,8.63
2019-03-11T04:06:34.447Z,6.77
2019-03-11T04:09:06.168Z,10.77
2019-03-11T04:11:37.822Z,8.33
2019-03-11T04:14:09.424Z,5.03
2019-03-11T04:16:41.040Z,6.93
2019-03-11T04:19:12.844Z,6.10
2019-03-11T04:21:44.518Z,12.50
2019-03-11T04:24:16.124Z,7.37
2019-03-11T04:26:54.749Z,6.90
2019-03-11T04:29:26.517Z,9.07
2019-03-11T04:31:59.614Z,7.07
2019-03-11T04:34:31.307Z,10.13
2019-03-11T04:37:02.903Z,7.07
2019-03-11T04:39:34.762Z,3.87
2019-03-11T04:42:06.399Z,7.90
2019-03-11T04:44:38.022Z,11.93
2019-03-11T04:47:09.664Z,8.88
2019-03-11T04:49:41.768Z,8.93
2019-03-11T04:52:13.438Z,5.37
2019-03-11T04:54:45.079Z,3.83
2019-03-11T04:57:16.715Z,5.80
2019-03-11T04:59:48.443Z,6.70
2019-03-11T05:02:20.286Z,11.47
2019-03-11T05:04:52.180Z,6.10
2019-03-11T05:07:24.252Z,5.87
2019-03-11T05:09:56.040Z,11.27
2019-03-11T05:12:27.668Z,4.03
2019-03-11T05:14:59.258Z,4.50
2019-03-11T05:17:30.885Z,11.23
2019-03-11T05:20:02.721Z,8.63
2019-03-11T05:22:34.482Z,7.10
2019-03-11T05:25:06.693Z,2.57
2019-03-11T05:27:38.290Z,5.73
2019-03-11T05:30:13.479Z,6.70
2019-03-11T05:32:45.116Z,3.90
2019-03-11T05:35:16.832Z,10.33
2019-03-11T05:37:48.703Z,8.53
2019-03-11T05:40:20.443Z,7.93
2019-03-11T05:42:52.105Z,4.53
2019-03-11T05:45:23.843Z,4.03
2019-03-11T05:47:55.556Z,6.20
2019-03-11T05:50:27.166Z,4.77
2019-03-11T05:52:59.150Z,3.00
2019-03-11T05:55:30.836Z,3.27
2019-03-11T05:58:02.449Z,3.90
2019-03-11T06:00:34.221Z,3.30
2019-03-11T06:03:05.871Z,2.23
2019-03-11T06:05:37.513Z,3.87
2019-03-11T06:08:17.590Z,6.20
2019-03-11T06:10:49.211Z,3.03
2019-03-11T06:13:20.826Z,3.60
2019-03-11T06:15:52.617Z,3.27
2019-03-11T06:18:52.079Z,2.60
2019-03-11T06:21:34.964Z,2.60
2019-03-11T06:24:07.291Z,2.67
2019-03-11T06:26:38.876Z,1.70
2019-03-11T06:29:13.025Z,2.13
2019-03-11T06:31:44.794Z,2.80
2019-03-11T06:34:16.410Z,2.00
2019-03-11T06:36:48.076Z,1.77
2019-03-11T06:39:19.797Z,2.40
2019-03-11T06:41:51.387Z,1.77
2019-03-11T06:44:23.055Z,3.63
2019-03-11T06:46:54.674Z,4.07
2019-03-11T06:49:26.414Z,2.93
2019-03-11T06:51:58.027Z,3.87
2019-03-11T06:54:29.897Z,3.93
2019-03-11T06:57:01.484Z,2.83
2019-03-11T06:59:33.320Z,3.67
2019-03-11T07:02:05.084Z,1.73
2019-03-11T07:04:36.711Z,2.30
2019-03-11T07:07:08.698Z,4.27
2019-03-11T07:09:40.295Z,3.67
2019-03-11T07:12:12.094Z,1.80
2019-03-11T07:14:43.741Z,1.50
2019-03-11T07:17:15.577Z,3.63
2019-03-11T07:19:47.193Z,1.83
2019-03-11T07:22:19.228Z,6.80
2019-03-11T07:24:50.864Z,1.80
2019-03-11T07:27:22.668Z,3.10
2019-03-11T07:29:54.265Z,1.73
2019-03-11T07:32:25.974Z,1.30
2019-03-11T07:35:07.939Z,1.50
2019-03-11T07:37:30.913Z,1.30
2019-03-11T07:40:02.459Z,3.23
2019-03-11T07:42:34.414Z,1.67
2019-03-11T07:45:06.265Z,1.70
2019-03-11T07:47:37.919Z,2.13
2019-03-11T07:50:09.639Z,3.20
2019-03-11T07:52:41.242Z,2.73
2019-03-11T07:55:12.875Z,3.20
2019-03-11T07:57:44.882Z,1.70
2019-03-11T08:00:16.637Z,2.70
2019-03-11T08:02:48.290Z,3.03
2019-03-11T08:05:19.934Z,1.83
2019-03-11T08:07:51.856Z,2.00
2019-03-11T08:10:23.626Z,5.13
2019-03-11T08:12:55.472Z,1.63
2019-03-11T08:15:27.085Z,2.27
2019-03-11T08:17:58.671Z,1.67
2019-03-11T08:20:30.590Z,2.43
2019-03-11T08:23:02.558Z,1.87
2019-03-11T08:25:34.317Z,1.93
2019-03-11T08:28:05.930Z,3.83
2019-03-11T08:30:37.662Z,3.00
2019-03-11T08:33:09.278Z,3.40
2019-03-11T08:35:41.020Z,4.07
2019-03-11T08:38:12.897Z,4.23
2019-03-11T08:40:44.549Z,3.20
2019-03-11T08:43:16.475Z,2.13
2019-03-11T08:45:48.181Z,1.83
2019-03-11T08:48:19.784Z,4.70
2019-03-11T08:50:51.470Z,5.23
2019-03-11T08:53:23.151Z,6.83
2019-03-11T08:55:54.906Z,1.83
2019-03-11T08:58:26.506Z,2.50
2019-03-11T09:00:58.308Z,3.40
2019-03-11T09:03:29.923Z,4.67
2019-03-11T09:06:01.540Z,2.60
2019-03-11T09:08:33.428Z,2.43
2019-03-11T09:11:07.085Z,2.83
2019-03-11T09:13:38.827Z,4.00
2019-03-11T09:16:10.612Z,6.10
2019-03-11T09:18:42.267Z,3.00
2019-03-11T09:21:13.890Z,3.57
2019-03-11T09:23:45.482Z,3.17
2019-03-11T09:26:17.418Z,3.70
2019-03-11T09:28:49.169Z,1.80
2019-03-11T09:31:20.970Z,4.93
2019-03-11T09:33:52.746Z,2.40
2019-03-11T09:36:24.365Z,2.40
2019-03-11T09:38:56.227Z,3.73
2019-03-11T09:41:27.905Z,4.37
2019-03-11T09:43:59.550Z,3.87
2019-03-11T09:46:31.305Z,4.73
2019-03-11T09:49:02.957Z,2.90
2019-03-11T09:51:34.609Z,3.30
2019-03-11T09:54:06.514Z,2.27
2019-03-11T09:56:43.268Z,3.20
2019-03-11T09:59:11.713Z,3.40
2019-03-11T10:01:43.469Z,5.07
2019-03-11T10:04:15.079Z,4.57
2019-03-11T10:06:46.714Z,3.57
2019-03-11T10:09:18.548Z,4.37
2019-03-11T10:11:50.276Z,5.87
2019-03-11T10:14:21.875Z,5.10
2019-03-11T10:16:53.677Z,1.97
2019-03-11T10:19:25.288Z,2.07
2019-03-11T10:21:56.899Z,2.30
2019-03-11T10:24:28.510Z,2.80
2019-03-11T10:27:00.696Z,2.80
2019-03-11T10:29:32.363Z,2.67
2019-03-11T10:32:04.001Z,8.00
2019-03-11T10:34:35.748Z,8.53
2019-03-11T10:37:07.332Z,2.37
2019-03-11T10:39:43.750Z,3.97
2019-03-11T10:42:15.383Z,1.77
2019-03-11T10:44:47.189Z,5.57
2019-03-11T10:47:18.876Z,4.70
2019-03-11T10:49:50.651Z,5.60
2019-03-11T10:52:22.446Z,3.60
2019-03-11T10:54:54.121Z,3.77
2019-03-11T10:57:25.727Z,2.27
2019-03-11T10:59:57.515Z,5.03
2019-03-11T11:02:29.183Z,4.20
2019-03-11T11:05:01.049Z,4.30
2019-03-11T11:07:32.871Z,2.37
2019-03-11T11:10:04.809Z,1.87
2019-03-11T11:12:36.457Z,6.70
2019-03-11T11:15:12.783Z,3.43
2019-03-11T11:17:44.521Z,6.70
2019-03-11T11:20:16.594Z,4.17
2019-03-11T11:22:48.296Z,2.40
2019-03-11T11:25:20.468Z,2.33
2019-03-11T11:27:52.097Z,3.60
2019-03-11T11:30:24.083Z,6.40
2019-03-11T11:32:55.845Z,3.10
2019-03-11T11:35:27.585Z,4.27
2019-03-11T11:37:59.182Z,2.23
2019-03-11T11:40:31.182Z,2.13
2019-03-11T11:43:02.794Z,4.07
2019-03-11T11:45:34.407Z,2.50
2019-03-11T11:48:08.247Z,4.40
2019-03-11T11:50:39.459Z,10.13
2019-03-11T11:53:11.090Z,5.30
2019-03-11T11:55:42.851Z,3.20
2019-03-11T11:58:14.484Z,5.70
2019-03-11T12:00:49.083Z,11.03
2019-03-11T12:03:20.677Z,4.93
2019-03-11T12:05:52.395Z,3.47
2019-03-11T12:08:24.552Z,2.83
2019-03-11T12:10:57.756Z,9.70
2019-03-11T12:13:30.970Z,4.30
2019-03-11T12:16:04.341Z,5.30
2019-03-11T12:18:35.970Z,3.13
2019-03-11T12:21:09.246Z,3.70
2019-03-11T12:23:46.245Z,3.20
2019-03-11T12:26:14.493Z,3.10
2019-03-11T12:28:46.097Z,2.17
2019-03-11T12:31:21.788Z,2.40
2019-03-11T12:33:52.627Z,4.53
2019-03-11T12:36:25.631Z,3.90
2019-03-11T12:38:57.419Z,2.60
2019-03-11T12:41:29.675Z,3.30
2019-03-11T12:44:01.543Z,5.40
2019-03-11T12:46:33.322Z,3.20
2019-03-11T12:49:04.976Z,2.53
2019-03-11T12:51:37.346Z,2.50
2019-03-11T12:54:10.563Z,4.07
2019-03-11T12:56:42.241Z,2.23
2019-03-11T12:59:15.055Z,3.97
2019-03-11T13:01:47.194Z,11.83
2019-03-11T13:04:18.885Z,4.17
2019-03-11T13:06:50.555Z,7.47
2019-03-11T13:09:22.583Z,3.27
2019-03-11T13:11:54.474Z,4.50
2019-03-11T13:14:26.153Z,1.80
2019-03-11T13:16:57.800Z,3.23
2019-03-11T13:19:29.605Z,8.80
2019-03-11T13:22:01.639Z,3.83
2019-03-11T13:24:33.494Z,4.17
2019-03-11T13:27:05.268Z,4.30
2019-03-11T13:29:37.042Z,2.23
2019-03-11T13:32:08.717Z,2.97
2019-03-11T13:34:40.491Z,5.47
2019-03-11T13:37:12.111Z,3.50
2019-03-11T13:39:43.955Z,1.87
2019-03-11T13:42:15.638Z,5.63
2019-03-11T13:44:47.544Z,2.53
2019-03-11T13:47:19.226Z,3.60
2019-03-11T13:49:50.975Z,2.50
2019-03-11T13:52:24.155Z,4.50
2019-03-11T13:54:57.521Z,4.37
2019-03-11T13:57:29.195Z,3.67
2019-03-11T14:00:02.393Z,4.43
2019-03-11T14:02:34.008Z,2.70
2019-03-11T14:05:05.863Z,4.70
2019-03-11T14:07:36.792Z,4.13
2019-03-11T14:10:06.228Z,4.93
2019-03-11T14:12:37.865Z,4.57
2019-03-11T14:15:10.025Z,2.90
2019-03-11T14:17:41.665Z,2.67
2019-03-11T14:20:14.241Z,2.00
2019-03-11T14:22:45.870Z,3.03
2019-03-11T14:25:17.797Z,2.77
2019-03-11T14:27:49.466Z,4.43
2019-03-11T14:30:21.325Z,3.83
2019-03-11T14:32:53.077Z,2.37
2019-03-11T14:35:24.876Z,3.93
2019-03-11T14:37:56.800Z,5.27
2019-03-11T14:40:28.667Z,2.30
2019-03-11T14:43:00.382Z,2.97
2019-03-11T14:45:32.074Z,2.63
2019-03-11T14:48:03.734Z,3.03
2019-03-11T14:50:36.161Z,7.37
2019-03-11T14:53:07.942Z,2.93
2019-03-11T14:55:39.597Z,3.10
2019-03-11T14:58:11.333Z,3.17
2019-03-11T15:00:43.231Z,3.03
2019-03-11T15:03:14.912Z,3.50
2019-03-11T15:05:46.568Z,4.20
2019-03-11T15:08:18.513Z,4.30
2019-03-11T15:10:50.130Z,2.00
2019-03-11T15:13:22.091Z,2.57
2019-03-11T15:15:53.761Z,2.87
2019-03-11T15:18:25.508Z,2.60
2019-03-11T15:20:57.190Z,2.13
2019-03-11T15:23:28.888Z,4.80
2019-03-11T15:26:00.596Z,2.53
2019-03-11T15:28:32.345Z,2.30
2019-03-11T15:31:10.592Z,4.70
2019-03-11T15:33:37.380Z,3.43
2019-03-11T15:36:08.984Z,2.50
2019-03-11T15:38:40.780Z,2.47
2019-03-11T15:41:12.542Z,1.77
2019-03-11T15:43:44.318Z,2.33
2019-03-11T15:46:15.958Z,5.03
2019-03-11T15:48:47.613Z,2.73
2019-03-11T15:51:19.281Z,3.90
2019-03-11T15:53:51.103Z,3.90
2019-03-11T15:56:22.739Z,2.03
2019-03-11T15:58:54.513Z,2.20
2019-03-11T16:01:26.272Z,1.50
2019-03-11T16:03:57.950Z,4.30
2019-03-11T16:06:29.752Z,2.13
2019-03-11T16:09:02.215Z,5.40
2019-03-11T16:11:33.917Z,1.73
2019-03-11T16:14:05.690Z,3.30
2019-03-11T16:16:37.380Z,2.20
2019-03-11T16:19:09.175Z,3.43
2019-03-11T16:21:40.806Z,5.43
2019-03-11T16:24:12.562Z,2.90
2019-03-11T16:26:44.390Z,2.57
2019-03-11T16:29:16.361Z,2.47
2019-03-11T16:31:48.115Z,4.63
2019-03-11T16:34:19.956Z,2.10
2019-03-11T16:36:51.687Z,1.63
2019-03-11T16:39:23.383Z,1.40
2019-03-11T16:41:56.310Z,2.57
2019-03-11T16:44:27.979Z,2.50
2019-03-11T16:46:59.770Z,2.53
2019-03-11T16:49:31.504Z,2.50
2019-03-11T16:52:03.190Z,3.17
2019-03-11T16:54:35.438Z,4.30
2019-03-11T16:57:07.111Z,2.33
2019-03-11T16:59:38.735Z,2.33
2019-03-11T17:02:10.849Z,1.87
2019-03-11T17:04:42.557Z,3.10
2019-03-11T17:07:14.444Z,3.07
2019-03-11T17:09:46.740Z,6.07
2019-03-11T17:12:18.468Z,2.40
2019-03-11T17:14:50.182Z,3.50
2019-03-11T17:17:21.899Z,7.20
2019-03-11T17:19:53.535Z,2.33
2019-03-11T17:22:25.546Z,4.87
2019-03-11T17:24:57.149Z,4.07
2019-03-11T17:27:28.871Z,1.93
2019-03-11T17:30:00.553Z,3.23
2019-03-11T17:32:32.295Z,1.83
2019-03-11T17:35:03.980Z,7.03
2019-03-11T17:37:35.867Z,3.23
2019-03-11T17:40:09.140Z,2.13
2019-03-11T17:42:40.890Z,2.17
2019-03-11T17:45:13.044Z,2.27
2019-03-11T17:47:44.762Z,4.27
2019-03-11T17:50:17.171Z,3.40
2019-03-11T17:52:49.096Z,1.90
2019-03-11T17:55:21.302Z,2.27
2019-03-11T17:57:53.128Z,1.87
2019-03-11T18:00:26.848Z,2.03
2019-03-11T18:02:58.546Z,2.47
2019-03-11T18:05:30.334Z,3.40
2019-03-11T18:08:02.617Z,2.57
2019-03-11T18:10:34.554Z,3.40
2019-03-11T18:13:06.378Z,3.70
2019-03-11T18:15:38.134Z,1.83
2019-03-11T18:18:10.002Z,1.80
2019-03-11T18:20:41.752Z,4.50
2019-03-11T18:23:13.744Z,4.77
2019-03-11T18:25:45.523Z,2.97
2019-03-11T18:28:17.293Z,4.70
2019-03-11T18:30:51.599Z,2.80
2019-03-11T18:33:22.795Z,3.73
2019-03-11T18:35:54.572Z,3.03
2019-03-11T18:38:26.271Z,2.07
2019-03-11T18:40:58.223Z,4.13
2019-03-11T18:43:29.940Z,5.90
2019-03-11T18:46:01.667Z,2.80
2019-03-11T18:48:33.363Z,1.77
2019-03-11T18:51:10.816Z,2.67
2019-03-11T18:53:38.644Z,2.13
2019-03-11T18:56:10.626Z,3.40
2019-03-11T18:58:42.473Z,3.23
2019-03-11T19:01:14.242Z,3.57
2019-03-11T19:03:46.292Z,4.83
2019-03-11T19:06:18.042Z,2.40
2019-03-11T19:08:49.946Z,4.57
2019-03-11T19:11:21.784Z,4.13
2019-03-11T19:13:53.604Z,3.53
2019-03-11T19:16:25.467Z,5.03
2019-03-11T19:18:57.233Z,4.97
2019-03-11T19:21:28.933Z,2.33
2019-03-11T19:24:00.756Z,4.60
2019-03-11T19:26:32.607Z,3.00
2019-03-11T19:29:04.325Z,5.27
2019-03-11T19:31:36.114Z,3.33
2019-03-11T19:34:07.902Z,2.47
2019-03-11T19:36:39.631Z,3.33
2019-03-11T19:39:14.067Z,2.73
2019-03-11T19:41:46.135Z,3.30
2019-03-11T19:44:17.938Z,1.87
2019-03-11T19:46:49.666Z,3.27
2019-03-11T19:49:21.519Z,2.13
2019-03-11T19:51:53.349Z,5.00
2019-03-11T19:54:25.227Z,2.40
2019-03-11T19:56:57.245Z,3.70
2019-03-11T19:59:29.183Z,4.50
2019-03-11T20:02:00.949Z,2.70
2019-03-11T20:04:32.982Z,5.10
2019-03-11T20:07:04.823Z,2.47
2019-03-11T20:09:36.974Z,2.63
2019-03-11T20:12:08.853Z,1.80
2019-03-11T20:14:41.010Z,3.33
2019-03-11T20:17:12.748Z,3.30
2019-03-11T20:19:44.693Z,3.77
2019-03-11T20:22:16.651Z,3.07
2019-03-11T20:24:48.500Z,5.97
2019-03-11T20:27:20.248Z,3.10
2019-03-11T20:29:52.104Z,2.47
2019-03-11T20:32:23.962Z,4.03
2019-03-11T20:34:55.759Z,4.07
2019-03-11T20:37:27.523Z,4.77
2019-03-11T20:39:59.384Z,3.93
2019-03-11T20:42:34.007Z,2.07
2019-03-11T20:45:04.906Z,6.40
2019-03-11T20:47:37.645Z,1.87
2019-03-11T20:50:11.136Z,2.50
2019-03-11T20:52:42.879Z,5.13
2019-03-11T20:55:15.033Z,3.57
2019-03-11T20:57:46.837Z,7.30
2019-03-11T21:00:20.703Z,3.33
2019-03-11T21:02:52.463Z,2.30
2019-03-11T21:05:27.168Z,6.43
2019-03-11T21:07:58.994Z,3.20
2019-03-11T21:10:30.901Z,2.07
2019-03-11T21:13:02.580Z,2.33
2019-03-11T21:15:34.722Z,4.30
2019-03-11T21:18:06.724Z,7.20
2019-03-11T21:20:38.546Z,3.77
2019-03-11T21:23:10.232Z,2.93
2019-03-11T21:25:42.027Z,3.27
2019-03-11T21:28:13.852Z,5.20
2019-03-11T21:30:45.937Z,3.77
2019-03-11T21:33:17.762Z,2.23
2019-03-11T21:35:49.779Z,3.83
2019-03-11T21:38:21.554Z,2.83
2019-03-11T21:40:53.245Z,3.70
2019-03-11T21:43:25.055Z,3.20
2019-03-11T21:45:56.735Z,2.70
2019-03-11T21:48:28.566Z,9.27
2019-03-11T21:51:00.215Z,3.33
2019-03-11T21:53:31.891Z,4.17
2019-03-11T21:56:03.617Z,4.70
2019-03-11T21:58:35.267Z,5.17
2019-03-11T22:01:06.975Z,3.13
2019-03-11T22:03:38.841Z,8.33
2019-03-11T22:06:10.577Z,2.47
2019-03-11T22:08:42.416Z,2.43
2019-03-11T22:11:14.165Z,4.50
2019-03-11T22:13:45.814Z,4.90
2019-03-11T22:16:17.484Z,5.40
2019-03-11T22:18:49.473Z,4.70
2019-03-11T22:21:21.155Z,3.20
2019-03-11T22:23:52.853Z,3.00
2019-03-11T22:26:24.488Z,2.97
2019-03-11T22:28:56.154Z,5.43
2019-03-11T22:31:28.111Z,3.93
2019-03-11T22:33:59.848Z,4.20
2019-03-11T22:36:31.483Z,4.90
2019-03-11T22:39:03.162Z,3.40
2019-03-11T22:41:34.815Z,3.30
2019-03-11T22:44:06.604Z,4.30
2019-03-11T22:46:38.444Z,4.17
2019-03-11T22:49:10.789Z,2.83
2019-03-11T22:51:42.405Z,2.90
2019-03-11T22:54:14.260Z,5.90
2019-03-11T22:56:47.703Z,6.17
2019-03-11T22:59:19.471Z,6.57
2019-03-11T23:01:51.047Z,2.00
2019-03-11T23:04:22.888Z,3.00
2019-03-11T23:06:54.515Z,4.33
2019-03-11T23:09:27.182Z,5.43
2019-03-11T23:11:58.825Z,4.13
2019-03-11T23:14:30.532Z,3.07
2019-03-11T23:17:02.186Z,2.60
2019-03-11T23:19:34.105Z,2.03
2019-03-11T23:22:06.113Z,4.47
2019-03-11T23:24:37.709Z,6.63
2019-03-11T23:27:09.341Z,4.53
2019-03-11T23:29:41.668Z,7.33
2019-03-11T23:32:14.086Z,4.00
2019-03-11T23:34:45.669Z,2.90
2019-03-11T23:37:17.399Z,2.03
2019-03-11T23:39:48.997Z,2.53
2019-03-11T23:42:20.667Z,3.13
2019-03-11T23:44:52.244Z,3.67
2019-03-11T23:47:23.887Z,3.23
2019-03-11T23:49:55.490Z,5.77
2019-03-11T23:52:27.304Z,3.40
2019-03-11T23:54:58.880Z,3.57
2019-03-11T23:57:30.500Z,8.20
